Time;durP1;ratioP1;P1;durP2;ratioP2;P2;SDS_P1;SDS_P2;PMS_P1;PMS_P2;Temp;Humidity;BMP_temperature;BMP_pressure;BME280_temperature;BME280_humidity;BME280_pressure;Samples;Min_cycle;Max_cycle;Signal;HPM_P1;HPM_P2
2023/07/13 00:00:53;;;;;;;0.97;0.60;;;;;;;15.06;69.68;101330.25;5095169;28;20031;-86
2023/07/13 00:03:18;;;;;;;0.83;0.70;;;;;;;15.04;70.49;101332.88;5094385;28;20020;-86
2023/07/13 00:05:44;;;;;;;1.03;0.70;;;;;;;15.03;69.82;101340.78;5094686;28;20028;-86
2023/07/13 00:08:11;;;;;;;1.03;0.60;;;;;;;15.04;71.32;101348.56;5095143;28;20092;-85
2023/07/13 00:10:44;;;;;;;0.80;0.75;;;;;;;14.98;71.18;101349.59;5095288;28;20027;-86
2023/07/13 00:13:09;;;;;;;0.70;0.70;;;;;;;14.93;70.48;101340.16;5094155;28;20454;-86
2023/07/13 00:15:35;;;;;;;0.90;0.90;;;;;;;14.96;70.74;101346.19;5095239;28;20020;-85
2023/07/13 00:18:01;;;;;;;0.60;0.60;;;;;;;14.93;70.32;101341.03;5095113;28;20401;-86
2023/07/13 00:20:26;;;;;;;0.60;0.60;;;;;;;14.89;70.74;101334.16;5094069;28;20111;-86
2023/07/13 00:22:56;;;;;;;0.80;0.80;;;;;;;14.78;71.39;101323.13;5095136;28;20073;-86
2023/07/13 00:25:24;;;;;;;0.70;0.70;;;;;;;14.82;71.79;101335.22;5094629;28;20027;-86
2023/07/13 00:27:49;;;;;;;0.60;0.60;;;;;;;14.81;71.32;101344.78;5094079;28;20472;-86
2023/07/13 00:30:15;;;;;;;0.50;0.50;;;;;;;14.79;71.74;101335.28;5094015;28;20040;-85
2023/07/13 00:32:40;;;;;;;0.63;0.50;;;;;;;14.75;71.61;101325.81;5094983;28;20024;-86
2023/07/13 00:35:07;;;;;;;0.50;0.50;;;;;;;14.77;71.37;101330.09;5093829;28;20085;-86
2023/07/13 00:37:33;;;;;;;0.73;0.73;;;;;;;14.75;72.54;101344.13;5094690;28;20024;-86
2023/07/13 00:39:58;;;;;;;1.17;0.70;;;;;;;14.78;71.45;101351.84;5093980;28;20486;-85
2023/07/13 00:42:24;;;;;;;0.70;0.70;;;;;;;14.74;72.55;101345.84;5093738;28;20024;-86
2023/07/13 00:45:12;;;;;;;0.83;0.80;;;;;;;14.73;71.55;101349.34;5094370;28;20020;-86
2023/07/13 00:47:41;;;;;;;0.77;0.77;;;;;;;14.70;73.03;101344.19;5093465;28;20460;-86
2023/07/13 00:50:15;;;;;;;1.00;0.90;;;;;;;14.62;73.34;101335.66;5093874;28;20028;-86
2023/07/13 00:52:44;;;;;;;1.10;0.90;;;;;;;14.62;73.03;101351.34;5094019;28;20520;-86
2023/07/13 00:55:12;;;;;;;0.70;0.60;;;;;;;14.56;72.35;101341.91;5093463;28;20047;-86
2023/07/13 00:57:50;;;;;;;0.80;0.70;;;;;;;14.51;73.62;101339.41;5093671;28;20023;-85
2023/07/13 01:00:21;;;;;;;1.92;1.30;;;;;;;14.47;74.80;101348.19;5093876;28;20471;-86
2023/07/13 01:02:56;;;;;;;3.00;1.48;;;;;;;14.43;76.19;101343.94;5093677;28;20024;-86
2023/07/13 01:05:23;;;;;;;2.63;1.30;;;;;;;14.34;73.71;101333.72;5093873;28;20024;-86
2023/07/13 01:07:51;;;;;;;1.10;1.10;;;;;;;14.31;74.21;101325.97;5094237;28;20426;-86
2023/07/13 01:10:24;;;;;;;0.98;0.98;;;;;;;14.39;74.74;101341.44;5092783;28;20513;-86
2023/07/13 01:12:50;;;;;;;1.10;0.90;;;;;;;14.29;74.80;101326.00;5093916;28;20056;-86
2023/07/13 01:15:37;;;;;;;1.73;0.77;;;;;;;14.40;74.07;101351.84;5092798;28;20107;-86
2023/07/13 01:18:11;;;;;;;1.40;1.10;;;;;;;14.40;74.88;101349.22;5093673;28;20487;-86
2023/07/13 01:20:39;;;;;;;1.63;1.25;;;;;;;14.39;73.82;101349.28;5093954;28;20028;-86
2023/07/13 01:23:11;;;;;;;1.00;1.00;;;;;;;14.37;74.22;101359.75;5092985;28;20091;-87
2023/07/13 01:25:37;;;;;;;0.88;0.88;;;;;;;14.39;74.04;101354.50;5093818;28;20476;-86
2023/07/13 01:28:05;;;;;;;0.95;0.80;;;;;;;14.40;73.53;101351.00;5093737;28;20465;-86
2023/07/13 01:30:31;;;;;;;0.90;0.90;;;;;;;14.35;73.16;101346.72;5092681;28;20048;-86
2023/07/13 01:32:58;;;;;;;1.00;0.90;;;;;;;14.43;73.73;101362.22;5093372;28;20052;-86
2023/07/13 01:35:26;;;;;;;1.23;1.13;;;;;;;14.43;74.69;101358.75;5093591;28;20101;-86
2023/07/13 01:37:52;;;;;;;2.25;1.20;;;;;;;14.43;75.61;101361.34;5092774;28;20020;-86
2023/07/13 01:40:17;;;;;;;1.70;1.10;;;;;;;14.38;74.31;101358.00;5093228;28;20035;-85
2023/07/13 01:42:43;;;;;;;1.27;1.17;;;;;;;14.39;73.86;101357.13;5093447;28;20032;-85
2023/07/13 01:45:09;;;;;;;1.47;1.03;;;;;;;14.38;74.29;101369.28;5091928;28;20028;-85
2023/07/13 01:47:34;;;;;;;1.10;0.80;;;;;;;14.33;74.35;101356.34;5093017;28;20447;-86
2023/07/13 01:49:59;;;;;;;0.87;0.87;;;;;;;14.30;73.93;101361.63;5093023;28;20833;-85
2023/07/13 01:52:25;;;;;;;1.10;1.00;;;;;;;14.30;75.08;101369.47;5091782;28;20031;-86
2023/07/13 01:54:50;;;;;;;0.87;0.87;;;;;;;14.27;74.87;101361.72;5093266;28;20024;-86
2023/07/13 01:57:16;;;;;;;1.20;1.10;;;;;;;14.27;74.13;101366.94;5092405;28;20027;-85
2023/07/13 01:59:41;;;;;;;1.67;1.17;;;;;;;14.24;74.29;101361.78;5091745;28;20027;-86
2023/07/13 02:02:07;;;;;;;1.23;1.13;;;;;;;14.17;74.19;101355.84;5092805;28;20036;-86
2023/07/13 02:04:33;;;;;;;1.27;0.90;;;;;;;14.20;74.97;101363.59;5092610;28;20024;-86
2023/07/13 02:06:58;;;;;;;1.58;1.25;;;;;;;14.25;74.74;101363.50;5093269;28;20408;-86
2023/07/13 02:09:23;;;;;;;2.00;1.40;;;;;;;14.20;75.49;101368.81;5092542;28;20103;-86
2023/07/13 02:11:52;;;;;;;3.80;1.63;;;;;;;14.17;77.58;101371.50;5091988;28;20039;-86
2023/07/13 02:14:17;;;;;;;2.17;1.70;;;;;;;14.12;76.66;101380.31;5092859;28;20024;-85
2023/07/13 02:16:43;;;;;;;1.80;1.50;;;;;;;14.07;77.46;101374.34;5091209;28;20020;-85
2023/07/13 02:19:08;;;;;;;1.93;1.40;;;;;;;14.02;77.51;101375.31;5091440;28;20028;-85
2023/07/13 02:21:34;;;;;;;2.17;1.77;;;;;;;14.02;78.25;101377.03;5093046;28;20020;-85
2023/07/13 02:24:00;;;;;;;3.10;1.80;;;;;;;13.99;78.44;101371.91;5092951;28;20493;-85
2023/07/13 02:26:26;;;;;;;2.80;1.83;;;;;;;13.96;78.65;101371.97;5091767;28;20168;-85
2023/07/13 02:28:51;;;;;;;2.83;1.80;;;;;;;13.88;78.04;101365.16;5092431;28;20111;-86
2023/07/13 02:31:17;;;;;;;3.37;2.27;;;;;;;13.93;78.34;101374.63;5092291;28;20047;-85
2023/07/13 02:33:43;;;;;;;3.47;2.27;;;;;;;13.88;79.37;101373.00;5092241;28;20025;-85
2023/07/13 02:36:09;;;;;;;3.90;2.10;;;;;;;13.82;79.19;101365.28;5092407;28;20031;-85
2023/07/13 02:38:36;;;;;;;1.80;1.70;;;;;;;13.85;80.29;101364.34;5092884;28;20016;-86
2023/07/13 02:41:03;;;;;;;2.35;1.80;;;;;;;13.84;79.26;101373.09;5091890;28;20031;-85
2023/07/13 02:43:29;;;;;;;3.42;1.73;;;;;;;13.83;79.36;101368.75;5092123;28;20082;-84
2023/07/13 02:45:55;;;;;;;2.53;1.60;;;;;;;13.81;78.35;101376.59;5092837;28;20020;-85
2023/07/13 02:48:20;;;;;;;1.50;1.40;;;;;;;13.80;78.14;101374.03;5091438;28;20485;-85
2023/07/13 02:50:45;;;;;;;1.73;1.43;;;;;;;13.77;78.49;101376.69;5092338;28;20020;-85
2023/07/13 02:53:11;;;;;;;1.93;1.50;;;;;;;13.77;78.33;101377.56;5091860;28;20108;-85
2023/07/13 02:55:37;;;;;;;1.57;1.30;;;;;;;13.78;78.84;101375.81;5091547;28;20024;-85
2023/07/13 02:58:02;;;;;;;1.13;1.10;;;;;;;13.74;77.71;101368.03;5094751;28;20392;-85
2023/07/13 03:00:28;;;;;;;1.50;1.40;;;;;;;13.77;77.56;101374.09;5096110;28;20028;-85
2023/07/13 03:02:56;;;;;;;2.37;1.40;;;;;;;13.75;78.27;101372.38;5095867;28;20095;-85
2023/07/13 03:05:22;;;;;;;1.30;1.20;;;;;;;13.75;77.39;101371.53;5078254;28;20020;-85
2023/07/13 03:07:47;;;;;;;1.70;1.60;;;;;;;13.72;81.61;101371.56;5095945;28;20031;-84
2023/07/13 03:10:13;;;;;;;1.60;1.43;;;;;;;13.71;78.86;101380.28;5095992;28;20039;-85
2023/07/13 03:12:38;;;;;;;2.00;1.47;;;;;;;13.65;80.41;101378.66;5096048;28;20583;-85
2023/07/13 03:15:04;;;;;;;1.60;1.40;;;;;;;13.61;79.96;101371.81;5095256;28;20038;-85
2023/07/13 03:17:29;;;;;;;1.45;1.25;;;;;;;13.62;80.60;101376.13;5096050;28;20020;-85
2023/07/13 03:20:00;;;;;;;2.33;1.60;;;;;;;13.58;79.25;101377.06;5095610;28;20050;-85
2023/07/13 03:22:26;;;;;;;2.17;1.50;;;;;;;13.56;80.39;101374.50;5095353;28;20044;-84
2023/07/13 03:24:54;;;;;;;2.00;1.40;;;;;;;13.52;81.28;101374.56;5096205;28;20431;-85
2023/07/13 03:27:20;;;;;;;1.23;1.13;;;;;;;13.43;79.78;101360.81;5095554;28;20024;-85
2023/07/13 03:29:45;;;;;;;1.40;1.30;;;;;;;13.50;80.02;101369.38;5095038;28;20042;-86
2023/07/13 03:32:10;;;;;;;1.43;1.30;;;;;;;13.54;79.61;101380.59;5095915;28;20463;-84
2023/07/13 03:34:36;;;;;;;1.70;1.03;;;;;;;13.54;79.36;101381.50;5095943;28;20103;-85
2023/07/13 03:37:01;;;;;;;1.27;1.07;;;;;;;13.52;79.25;101392.81;5095460;28;20024;-85
2023/07/13 03:39:26;;;;;;;1.83;1.20;;;;;;;13.50;80.63;101379.81;5095042;28;20530;-85
2023/07/13 03:41:52;;;;;;;1.67;1.30;;;;;;;13.52;81.13;101388.47;5095747;28;20024;-85
2023/07/13 03:44:17;;;;;;;1.70;1.33;;;;;;;13.47;81.95;101386.84;5094313;28;20027;-85
2023/07/13 03:46:43;;;;;;;2.13;1.30;;;;;;;13.49;81.12;101396.34;5094838;28;20044;-85
2023/07/13 03:49:09;;;;;;;1.63;1.30;;;;;;;13.49;81.86;101392.91;5095402;28;20020;-85
2023/07/13 03:51:34;;;;;;;1.50;1.30;;;;;;;13.46;81.21;101399.00;5094084;28;20085;-85
2023/07/13 03:54:00;;;;;;;1.23;1.13;;;;;;;13.48;81.03;101399.84;5095474;28;20536;-85
2023/07/13 03:56:25;;;;;;;1.73;1.27;;;;;;;13.50;82.18;101394.63;5095015;28;20468;-85
2023/07/13 03:58:51;;;;;;;3.03;1.53;;;;;;;13.52;83.77;101403.25;5094571;28;20028;-85
2023/07/13 04:01:19;;;;;;;3.37;1.63;;;;;;;13.51;83.00;101412.81;5094870;28;20028;-85
2023/07/13 04:03:46;;;;;;;1.98;1.20;;;;;;;13.52;85.93;101414.56;5095338;28;20020;-84
2023/07/13 04:06:21;;;;;;;2.55;1.58;;;;;;;13.52;83.10;101419.75;5094219;28;20024;-84
2023/07/13 04:08:49;;;;;;;1.40;1.30;;;;;;;13.55;82.59;101413.63;5094752;28;20065;-85
2023/07/13 04:11:14;;;;;;;2.42;1.40;;;;;;;13.56;83.41;101420.56;5094261;28;20057;-85
2023/07/13 04:13:39;;;;;;;2.07;1.70;;;;;;;13.57;84.52;101423.13;5095118;28;20024;-85
2023/07/13 04:16:05;;;;;;;1.97;1.40;;;;;;;13.61;83.31;101426.56;5094719;28;20054;-85
2023/07/13 04:18:30;;;;;;;2.07;1.33;;;;;;;13.64;83.11;101433.47;5094404;28;20111;-85
2023/07/13 04:20:56;;;;;;;1.43;1.30;;;;;;;13.64;84.48;101418.66;5094800;28;20020;-85
2023/07/13 04:23:21;;;;;;;1.27;1.17;;;;;;;13.70;84.50;101423.78;5094596;28;20349;-85
2023/07/13 04:25:49;;;;;;;1.43;1.30;;;;;;;13.80;84.19;101426.22;5094275;28;20027;-85
2023/07/13 04:28:15;;;;;;;2.30;1.73;;;;;;;13.80;87.68;101428.81;5094744;28;20012;-85
2023/07/13 04:30:41;;;;;;;1.45;1.33;;;;;;;13.84;86.79;101431.34;5094738;28;20372;-85
2023/07/13 04:33:08;;;;;;;2.60;1.60;;;;;;;13.89;87.69;101428.63;5093727;28;20012;-85
2023/07/13 04:35:33;;;;;;;2.53;1.80;;;;;;;13.95;88.28;101433.75;5094766;28;20020;-85
2023/07/13 04:37:59;;;;;;;2.57;1.70;;;;;;;13.99;87.83;101427.56;5094585;28;20085;-85
2023/07/13 04:40:27;;;;;;;5.17;2.20;;;;;;;14.05;87.99;101429.19;5092971;28;20031;-84
2023/07/13 04:42:52;;;;;;;5.00;2.42;;;;;;;14.08;88.18;101436.94;5094288;28;20031;-85
2023/07/13 04:45:18;;;;;;;4.53;2.47;;;;;;;14.09;88.36;101433.47;5093675;28;20036;-85
2023/07/13 04:47:43;;;;;;;5.50;2.50;;;;;;;14.21;88.19;101451.47;5093479;28;20062;-86
2023/07/13 04:50:10;;;;;;;9.27;3.10;;;;;;;14.24;89.18;101442.72;5093832;28;20032;-84
2023/07/13 04:52:36;;;;;;;7.38;2.90;;;;;;;14.31;89.74;101448.66;5094323;28;20028;-85
2023/07/13 04:55:01;;;;;;;7.07;2.83;;;;;;;14.36;89.04;101452.03;5089923;28;20637;-85
2023/07/13 04:57:27;;;;;;;5.40;2.40;;;;;;;14.41;87.32;101444.13;5094175;28;20027;-84
2023/07/13 04:59:53;;;;;;;2.63;2.05;;;;;;;14.48;88.14;101440.47;5094413;28;20027;-84
2023/07/13 05:02:21;;;;;;;7.77;3.20;;;;;;;14.54;89.64;101437.72;5093078;28;20486;-83
2023/07/13 05:04:48;;;;;;;5.75;3.00;;;;;;;14.63;89.16;101447.97;5093166;28;20028;-84
2023/07/13 05:07:13;;;;;;;8.23;3.30;;;;;;;14.64;89.42;101447.06;5092627;28;20027;-84
2023/07/13 05:09:39;;;;;;;5.97;2.90;;;;;;;14.75;89.22;101459.06;5093499;28;20422;-83
2023/07/13 05:12:08;;;;;;;10.32;3.65;;;;;;;14.75;90.56;101449.47;5094346;28;20020;-83
2023/07/13 05:14:36;;;;;;;10.13;3.90;;;;;;;14.83;89.49;101449.28;5093361;28;20411;-83
2023/07/13 05:17:01;;;;;;;12.98;4.25;;;;;;;14.91;91.11;101462.19;5093542;28;20111;-83
2023/07/13 05:19:27;;;;;;;6.80;3.63;;;;;;;14.98;89.72;101467.22;5092780;28;20551;-84
2023/07/13 05:21:52;;;;;;;9.33;3.93;;;;;;;15.04;89.83;101474.03;5093054;28;20016;-84
2023/07/13 05:24:18;;;;;;;8.07;3.80;;;;;;;15.07;88.84;101471.38;5093117;28;20012;-83
2023/07/13 05:26:44;;;;;;;10.50;4.70;;;;;;;15.17;90.31;101473.75;5093435;28;20484;-83
2023/07/13 05:29:09;;;;;;;9.17;4.50;;;;;;;15.21;89.95;101476.25;5092886;28;20035;-85
2023/07/13 05:31:34;;;;;;;8.70;3.63;;;;;;;15.22;89.48;101472.75;5093632;28;20036;-83
2023/07/13 05:34:00;;;;;;;9.13;4.20;;;;;;;15.32;90.01;101477.72;5093073;28;20069;-83
2023/07/13 05:36:25;;;;;;;6.63;4.17;;;;;;;15.37;90.06;101481.94;5091832;28;20031;-83
2023/07/13 05:38:50;;;;;;;9.73;4.70;;;;;;;15.44;89.66;101482.66;5093365;28;20064;-81
2023/07/13 05:41:16;;;;;;;11.20;4.77;;;;;;;15.52;90.40;101485.97;5092989;28;20035;-81
2023/07/13 05:43:41;;;;;;;9.43;4.40;;;;;;;15.53;89.74;101476.34;5091917;28;20016;-80
2023/07/13 05:46:07;;;;;;;16.13;5.23;;;;;;;15.63;89.89;101482.19;5092958;28;20099;-79
2023/07/13 05:48:32;;;;;;;10.43;4.70;;;;;;;15.70;89.67;101481.13;5093483;28;20411;-77
2023/07/13 05:50:58;;;;;;;8.60;4.40;;;;;;;15.77;90.07;101481.81;5092204;28;20024;-78
2023/07/13 05:53:23;;;;;;;10.83;4.80;;;;;;;15.85;89.71;101487.75;5093029;28;20023;-79
2023/07/13 05:55:52;;;;;;;10.23;4.60;;;;;;;15.96;89.23;101488.31;5092538;28;20028;-79
2023/07/13 05:58:19;;;;;;;10.90;4.60;;;;;;;16.02;89.19;101489.91;5091987;28;20032;-79
2023/07/13 06:00:44;;;;;;;9.88;4.90;;;;;;;16.04;89.25;101488.94;5093187;28;20069;-79
2023/07/13 06:03:10;;;;;;;9.40;4.37;;;;;;;16.11;88.74;101502.72;5091997;28;20371;-79
2023/07/13 06:05:37;;;;;;;12.10;5.60;;;;;;;16.09;88.60;101499.31;5091624;28;20031;-80
2023/07/13 06:08:06;;;;;;;13.23;5.50;;;;;;;16.05;88.90;101501.13;5093040;28;20066;-78
2023/07/13 06:10:37;;;;;;;9.48;4.50;;;;;;;16.16;87.39;101502.59;5092924;28;20032;-79
2023/07/13 06:13:03;;;;;;;9.50;4.63;;;;;;;16.27;87.84;101504.91;5092299;28;20024;-79
2023/07/13 06:15:28;;;;;;;8.83;4.33;;;;;;;16.39;87.74;101507.19;5092465;28;20024;-79
2023/07/13 06:17:54;;;;;;;7.40;4.07;;;;;;;16.52;87.96;101505.06;5092218;28;20021;-80
2023/07/13 06:20:19;;;;;;;9.07;4.03;;;;;;;16.60;86.99;101500.47;5092436;28;20371;-81
2023/07/13 06:22:44;;;;;;;12.20;5.33;;;;;;;16.68;86.80;101514.19;5093024;28;20068;-79
2023/07/13 06:25:10;;;;;;;13.10;5.47;;;;;;;16.78;86.38;101517.38;5091809;28;20561;-78
2023/07/13 06:27:35;;;;;;;11.53;4.57;;;;;;;16.82;86.45;101515.53;5093039;28;20078;-78
2023/07/13 06:30:01;;;;;;;13.30;5.63;;;;;;;16.85;86.33;101514.56;5092486;28;20047;-78
2023/07/13 06:32:26;;;;;;;11.60;5.30;;;;;;;16.86;85.80;101519.75;5097836;28;20016;-78
2023/07/13 06:34:51;;;;;;;12.50;6.20;;;;;;;16.85;85.62;101520.66;5099198;28;20051;-82
2023/07/13 06:37:17;;;;;;;10.33;4.80;;;;;;;16.87;85.91;101531.13;5099094;28;20020;-80
2023/07/13 06:39:46;;;;;;;14.82;6.28;;;;;;;16.82;85.50;101520.78;5098944;28;20016;-85
2023/07/13 06:42:11;;;;;;;10.00;4.90;;;;;;;16.79;85.40;101533.97;5098136;28;20039;-87
2023/07/13 06:44:37;;;;;;;10.50;5.10;;;;;;;16.80;85.35;101533.91;5099462;28;20016;-87
2023/07/13 06:47:02;;;;;;;8.07;4.33;;;;;;;16.82;85.53;101537.34;5098836;28;20020;-87
2023/07/13 06:49:28;;;;;;;8.77;4.60;;;;;;;16.79;85.04;101529.56;5099201;28;20387;-87
2023/07/13 06:51:56;;;;;;;9.40;4.47;;;;;;;16.87;85.75;101536.38;5099218;28;20020;-87
2023/07/13 06:54:21;;;;;;;10.82;4.97;;;;;;;16.93;85.65;101533.53;5101543;28;20464;-87
2023/07/13 06:56:47;;;;;;;9.37;5.07;;;;;;;17.01;85.58;101538.56;5099415;28;20031;-86
2023/07/13 06:59:12;;;;;;;8.90;4.47;;;;;;;17.13;84.91;101535.56;5099092;28;20402;-85
2023/07/13 07:01:37;;;;;;;8.77;4.47;;;;;;;17.11;84.29;101540.00;5098589;28;20063;-87
2023/07/13 07:04:03;;;;;;;10.03;4.47;;;;;;;17.12;84.96;101545.19;5098360;28;20552;-86
2023/07/13 07:06:29;;;;;;;7.25;4.53;;;;;;;17.17;84.78;101544.19;5098503;28;20023;-86
2023/07/13 07:08:54;;;;;;;11.43;5.20;;;;;;;17.18;83.99;101551.16;5098480;28;20468;-86
2023/07/13 07:11:23;;;;;;;8.20;4.33;;;;;;;17.21;84.23;101553.69;5095469;28;20028;-86
2023/07/13 07:13:50;;;;;;;8.60;4.60;;;;;;;17.23;84.04;101551.84;5091642;28;20027;-86
2023/07/13 07:16:16;;;;;;;;;;;;;;;17.31;84.30;101549.88;5098502;28;20016;-86
2023/07/13 07:18:41;;;;;;;6.57;3.65;;;;;;;17.41;84.05;101553.91;5085602;28;19919;-86
2023/07/13 07:21:07;;;;;;;7.63;4.00;;;;;;;17.49;83.87;101552.78;5077675;28;20035;-85
2023/07/13 07:23:32;;;;;;;7.43;4.27;;;;;;;17.55;83.24;101545.56;5083551;28;20131;-86
2023/07/13 07:25:58;;;;;;;6.20;3.63;;;;;;;17.64;83.04;101554.03;5098038;28;20031;-86
2023/07/13 07:28:32;;;;;;;5.07;3.40;;;;;;;17.74;82.83;101561.56;5098142;28;20400;-86
2023/07/13 07:30:58;;;;;;;5.72;3.30;;;;;;;17.83;82.97;101564.78;5098812;28;20123;-86
2023/07/13 07:33:25;;;;;;;8.50;4.33;;;;;;;17.90;81.65;101567.13;5098158;28;20154;-85
2023/07/13 07:35:50;;;;;;;7.60;3.67;;;;;;;18.01;82.72;101555.44;5097813;28;20081;-85
2023/07/13 07:38:16;;;;;;;7.97;3.97;;;;;;;18.17;81.64;101561.88;5088853;28;20477;-86
2023/07/13 07:40:41;;;;;;;11.50;4.30;;;;;;;18.34;80.86;101566.53;5088615;28;20020;-85
2023/07/13 07:43:11;;;;;;;8.30;3.93;;;;;;;18.41;80.63;101563.66;5094912;28;20115;-85
2023/07/13 07:45:42;;;;;;;8.00;3.80;;;;;;;18.47;80.62;101561.66;5095608;28;20124;-86
2023/07/13 07:48:09;;;;;;;5.78;3.45;;;;;;;18.60;79.95;101554.16;5095464;28;20020;-86
2023/07/13 07:50:34;;;;;;;;;;;;;;;18.66;79.54;101559.19;5078625;28;20029;-86
2023/07/13 07:53:01;;;;;;;8.97;4.80;;;;;;;18.67;79.40;101547.78;5091032;28;19919;-86
2023/07/13 07:55:27;;;;;;;8.02;4.10;;;;;;;18.96;78.50;101558.94;5095162;28;20165;-86
2023/07/13 07:57:53;;;;;;;6.97;4.07;;;;;;;19.34;79.21;101560.13;5094835;28;20103;-87
2023/07/13 08:00:19;;;;;;;4.50;3.40;;;;;;;19.68;78.92;101572.72;5094955;28;20020;-86
2023/07/13 08:02:45;;;;;;;7.63;3.90;;;;;;;19.89;76.18;101560.47;5095715;28;20468;-86
2023/07/13 08:05:11;;;;;;;9.43;4.10;;;;;;;19.92;72.76;101564.72;5093699;28;20024;-87
2023/07/13 08:07:38;;;;;;;;;;;;;;;19.86;75.00;101568.50;5094367;28;20113;-86
2023/07/13 08:10:04;;;;;;;6.40;3.83;;;;;;;20.01;74.87;101560.84;5094448;28;19912;-87
2023/07/13 08:12:29;;;;;;;5.40;3.60;;;;;;;20.17;74.07;101567.16;5094179;28;20434;-86
2023/07/13 08:14:57;;;;;;;5.40;3.20;;;;;;;20.21;73.96;101560.81;5095138;28;20020;-87
2023/07/13 08:17:23;;;;;;;3.70;2.80;;;;;;;20.23;74.14;101573.06;5094130;28;20028;-86
2023/07/13 08:19:49;;;;;;;4.25;2.90;;;;;;;20.40;71.55;101577.59;5095015;28;20028;-86
2023/07/13 08:22:15;;;;;;;7.43;3.30;;;;;;;20.57;68.98;101575.03;5094736;28;20503;-88
2023/07/13 08:24:42;;;;;;;12.90;4.50;;;;;;;20.55;69.25;101568.13;5094058;28;20309;-86
2023/07/13 08:27:07;;;;;;;7.63;4.10;;;;;;;20.48;71.36;101565.78;5094380;28;20032;-86
2023/07/13 08:29:33;;;;;;;8.00;4.07;;;;;;;20.67;68.79;101567.56;5094804;28;20023;-85
2023/07/13 08:31:58;;;;;;;10.43;4.70;;;;;;;20.70;67.49;101564.78;5093822;28;20129;-87
2023/07/13 08:34:23;;;;;;;5.60;3.70;;;;;;;20.77;69.64;101547.78;5094145;28;20047;-87
2023/07/13 08:36:49;;;;;;;7.53;3.57;;;;;;;20.94;70.07;101559.31;5094370;28;20103;-86
2023/07/13 08:39:14;;;;;;;4.80;2.97;;;;;;;20.98;69.55;101571.41;5093512;28;20032;-84
2023/07/13 08:41:40;;;;;;;3.73;2.87;;;;;;;20.97;68.77;101565.31;5094736;28;20027;-89
2023/07/13 08:44:20;;;;;;;4.77;3.00;;;;;;;21.14;68.58;101555.69;5093951;28;20024;-86
2023/07/13 08:46:47;;;;;;;4.68;3.30;;;;;;;21.45;67.48;101572.66;5093858;28;20024;-87
2023/07/13 08:49:19;;;;;;;7.45;3.95;;;;;;;21.59;65.21;101572.03;5094131;28;20036;-93
2023/07/13 08:51:49;;;;;;;4.68;3.58;;;;;;;21.57;66.89;101571.22;5094495;28;20102;-84
2023/07/13 08:54:28;;;;;;;4.25;3.20;;;;;;;21.52;66.24;101567.94;5092160;28;20105;-87
2023/07/13 08:56:55;;;;;;;4.50;3.15;;;;;;;21.41;67.11;101571.97;5103500;22;20079;-86
2023/07/13 08:59:26;;;;;;;4.72;3.63;;;;;;;21.37;64.18;101567.78;5114243;28;20341;-86
2023/07/13 09:02:21;;;;;;;4.38;3.30;;;;;;;21.25;66.14;101563.94;5114524;28;20398;-86
2023/07/13 09:05:00;;;;;;;5.65;3.17;;;;;;;21.22;64.71;101564.09;5094318;28;20039;-87
2023/07/13 09:07:41;;;;;;;5.75;3.60;;;;;;;21.32;66.35;101568.94;5092117;28;20023;-87
2023/07/13 09:10:11;;;;;;;6.47;3.60;;;;;;;21.45;64.08;101568.25;5093928;28;20027;-88
2023/07/13 09:12:55;;;;;;;4.93;3.65;;;;;;;21.35;65.58;101572.28;5093811;28;20020;-87
2023/07/13 09:15:34;;;;;;;3.53;3.10;;;;;;;21.41;65.50;101564.03;5109154;28;20036;-86
2023/07/13 09:18:08;;;;;;;4.93;3.30;;;;;;;21.48;64.29;101567.25;5114211;28;20031;-86
2023/07/13 09:20:47;;;;;;;3.35;2.90;;;;;;;21.66;63.68;101568.13;5113321;28;20101;-86
2023/07/13 09:23:17;;;;;;;5.25;3.83;;;;;;;21.72;63.06;101564.31;5114033;28;20031;-87
2023/07/13 09:25:47;;;;;;;6.43;3.90;;;;;;;21.85;61.61;101567.19;5114233;28;20102;-87
2023/07/13 09:28:22;;;;;;;5.25;3.55;;;;;;;21.90;61.29;101562.53;5113155;28;20058;-86
2023/07/13 09:31:21;;;;;;;5.85;3.67;;;;;;;21.94;60.74;101565.84;5113769;28;20039;-86
2023/07/13 09:33:48;;;;;;;8.82;4.40;;;;;;;21.87;60.37;101571.47;5112363;28;20034;-86
2023/07/13 09:36:28;;;;;;;6.35;4.03;;;;;;;21.79;61.51;101567.50;5112273;28;20023;-86
2023/07/13 09:39:03;;;;;;;7.10;3.90;;;;;;;21.72;62.10;101567.84;5112822;28;20468;-87
2023/07/13 09:42:03;;;;;;;7.15;4.15;;;;;;;21.98;61.62;101559.50;5113631;28;20028;-87
2023/07/13 09:44:35;;;;;;;6.93;3.70;;;;;;;22.32;62.57;101565.63;5113456;28;20049;-86
2023/07/13 09:47:02;;;;;;;5.75;3.70;;;;;;;22.36;58.40;101565.38;5113743;28;20019;-86
2023/07/13 09:49:37;;;;;;;4.75;3.33;;;;;;;22.18;58.79;101564.56;5112806;28;20035;-87
2023/07/13 09:52:10;;;;;;;3.53;2.83;;;;;;;22.28;61.84;101569.38;5113457;28;20540;-87
2023/07/13 09:54:36;;;;;;;3.05;2.75;;;;;;;22.62;61.71;101559.66;5112379;28;20482;-87
2023/07/13 09:57:11;;;;;;;5.15;3.38;;;;;;;22.76;58.09;101562.38;5111744;28;20039;-87
2023/07/13 09:59:43;;;;;;;4.63;3.08;;;;;;;22.75;59.35;101563.31;5113401;28;20028;-87
2023/07/13 10:02:41;;;;;;;5.88;3.67;;;;;;;22.75;59.88;101557.16;5113432;28;20023;-87
2023/07/13 10:05:12;;;;;;;5.32;3.25;;;;;;;22.62;57.38;101562.28;5079084;28;20050;-86
2023/07/13 10:07:43;;;;;;;4.10;2.90;;;;;;;22.92;60.11;101556.22;5113745;28;20118;-86
2023/07/13 10:10:22;;;;;;;3.15;2.67;;;;;;;23.32;58.97;101566.34;5113611;28;20540;-88
2023/07/13 10:12:49;;;;;;;3.95;3.00;;;;;;;23.58;56.80;101563.06;5113503;28;20047;-86
2023/07/13 10:15:19;;;;;;;4.32;2.80;;;;;;;23.55;56.31;101568.53;5112775;28;20031;-87
2023/07/13 10:17:45;;;;;;;4.25;2.78;;;;;;;23.46;56.60;101563.78;5112601;28;20026;-86
2023/07/13 10:20:12;;;;;;;;;;;;;;;23.33;55.98;101568.06;5113310;28;20050;-86
2023/07/13 10:22:40;;;;;;;3.08;2.28;;;;;;;23.35;57.77;101572.34;5113442;28;20020;-86
2023/07/13 10:25:23;;;;;;;3.50;2.30;;;;;;;23.65;57.61;101563.53;5111458;28;20399;-85
2023/07/13 10:28:05;;;;;;;6.07;2.83;;;;;;;23.77;55.63;101567.25;5113420;28;20076;-87
2023/07/13 10:30:35;;;;;;;4.53;2.58;;;;;;;23.73;55.03;101573.69;5120414;28;20019;-84
2023/07/13 10:33:11;;;;;;;3.00;2.40;;;;;;;23.65;54.87;101554.72;5111820;28;20035;-84
2023/07/13 10:35:38;;;;;;;4.60;2.60;;;;;;;23.43;53.09;101569.22;5112900;28;20034;-84
2023/07/13 10:38:11;;;;;;;2.80;2.47;;;;;;;23.12;54.90;101566.56;5112208;28;20027;-84
2023/07/13 10:40:56;;;;;;;2.50;2.13;;;;;;;22.96;56.25;101581.59;5112722;28;20020;-83
2023/07/13 10:43:27;;;;;;;2.47;2.07;;;;;;;22.73;57.14;101585.53;5112785;28;20149;-84
2023/07/13 10:45:54;;;;;;;2.10;2.00;;;;;;;22.46;58.40;101588.72;5112240;28;20265;-83
2023/07/13 10:48:22;;;;;;;2.97;2.50;;;;;;;22.10;60.28;101610.84;5111664;28;20042;-84
2023/07/13 10:50:50;;;;;;;4.18;2.85;;;;;;;21.64;62.78;101600.84;5112926;28;20116;-82
2023/07/13 10:53:29;;;;;;;2.63;2.42;;;;;;;21.32;64.58;101598.81;5111298;28;20031;-82
2023/07/13 10:56:00;;;;;;;2.55;2.35;;;;;;;21.12;66.36;101600.66;5103686;28;20042;-82
2023/07/13 10:58:38;;;;;;;2.05;1.95;;;;;;;21.06;66.83;101608.00;5097559;28;20036;-82
2023/07/13 11:01:07;;;;;;;2.20;2.00;;;;;;;21.19;68.47;101602.97;5100309;28;20028;-82
2023/07/13 11:03:37;;;;;;;3.58;2.92;;;;;;;21.34;67.07;101604.03;5103203;28;20360;-82
2023/07/13 11:06:16;;;;;;;3.80;2.60;;;;;;;21.33;68.25;101611.09;5098940;28;20128;-82
2023/07/13 11:08:44;;;;;;;2.75;2.20;;;;;;;21.29;70.33;101612.16;5099166;28;20077;-82
2023/07/13 11:11:31;;;;;;;4.55;3.15;;;;;;;21.35;71.33;101611.00;5112382;28;20026;-82
2023/07/13 11:14:04;;;;;;;2.90;2.60;;;;;;;21.57;69.69;101610.81;5094814;28;20102;-81
2023/07/13 11:16:36;;;;;;;3.00;2.50;;;;;;;21.87;68.85;101610.25;5112776;28;20056;-81
2023/07/13 11:19:01;;;;;;;3.47;2.80;;;;;;;22.22;68.28;101604.91;5115156;28;20080;-81
2023/07/13 11:21:30;;;;;;;3.70;2.70;;;;;;;22.29;66.65;101606.28;5115741;28;20023;-81
2023/07/13 11:24:17;;;;;;;3.58;2.75;;;;;;;22.21;64.20;101609.38;5102848;28;20098;-81
2023/07/13 11:26:49;;;;;;;4.30;3.08;;;;;;;22.11;66.04;101600.22;5096047;28;20028;-81
2023/07/13 11:29:15;;;;;;;3.13;2.70;;;;;;;22.17;66.93;101606.97;5097294;28;20031;-81